Date,TemperatureHighF,TemperatureAvgF,TemperatureLowF,DewpointHighF,DewpointAvgF,DewpointLowF,HumidityHigh,HumidityAvg,HumidityLow,PressureMaxIn,PressureMinIn,WindSpeedMaxMPH,WindSpeedAvgMPH,GustSpeedMaxMPH,PrecipitationSumIn
2013-1-1,48.5,43.5,39.2,41.0,35.0,4.0,96,76,20,30.12,29.97,16,5,0,0.00
2013-1-2,40.1,33.3,29.8,39.0,30.9,27.0,96,91,79,30.26,29.96,13,3,0,0.00
2013-1-3,34.3,29.6,25.8,31.0,25.8,17.0,97,86,66,30.35,30.21,13,2,0,0.00
2013-1-4,34.6,25.7,21.0,18.0,16.1,13.0,80,68,43,30.43,30.32,18,8,0,0.00
2013-1-5,41.9,32.3,23.5,26.0,15.6,8.0,77,52,31,30.50,30.26,17,3,0,0.00
2013-1-6,40.6,33.6,30.4,32.0,27.9,22.0,93,80,62,30.28,30.13,19,6,0,0.00
2013-1-7,39.8,31.2,24.8,25.0,22.5,20.0,85,71,52,30.55,30.24,15,3,0,0.00
2013-1-8,43.6,35.6,28.5,39.0,28.3,23.0,96,76,56,30.53,30.44,4,0,0,0.00
2013-1-9,55.4,49.0,39.2,49.0,44.8,38.0,98,86,67,30.49,30.41,14,3,0,0.00
2013-1-10,54.7,48.7,43.2,50.0,42.8,30.0,97,81,57,30.55,30.42,8,0,0,0.00
2013-1-11,52.3,44.6,39.1,52.0,43.8,36.0,99,97,74,30.42,30.20,5,1,0,0.01
2013-1-12,64.2,58.3,52.5,58.0,55.1,52.0,99,89,74,30.22,30.09,13,2,0,0.00
2013-1-13,58.6,55.6,53.5,56.0,54.3,53.0,99,95,87,30.13,30.04,5,1,0,0.00
2013-1-14,55.9,53.3,44.5,56.0,53.1,44.0,99,98,96,30.20,30.05,6,1,0,0.00
2013-1-15,46.4,40.5,35.8,46.0,40.3,36.0,99,99,99,30.24,30.11,2,0,0,0.00
2013-1-16,53.5,48.1,37.6,49.0,46.4,37.0,100,94,79,30.11,29.97,10,1,0,0.00
2013-1-17,48.8,36.2,26.1,47.0,35.6,25.0,98,97,93,30.26,29.98,7,1,0,0.00
2013-1-18,27.9,24.0,20.6,26.0,22.2,19.0,95,92,89,30.67,30.28,0,0,0,0.00
2013-1-19,40.3,31.5,24.2,36.0,25.1,17.0,91,78,40,30.61,30.20,9,1,0,0.00
2013-1-20,41.1,36.8,33.7,29.0,25.4,17.0,75,64,43,30.21,30.11,25,9,0,0.00
2013-1-21,40.1,33.5,21.6,23.0,17.2,4.0,63,52,43,30.14,30.00,23,7,0,0.00
2013-1-22,21.1,15.4,10.7,4.0,-4.3,-11.0,55,42,31,30.40,30.02,22,8,0,0.00
2013-1-23,31.8,21.9,12.9,23.0,8.0,-9.0,70,56,35,30.45,30.11,20,4,0,0.00
2013-1-24,33.8,20.8,10.0,25.0,9.0,-1.0,74,61,42,30.61,29.96,30,10,0,0.00
2013-1-25,32.9,18.1,10.0,31.0,13.1,0.0,96,81,61,30.61,30.15,14,3,0,0.00
2013-1-26,35.9,28.1,24.5,29.0,21.7,19.0,91,78,56,30.45,30.17,12,4,0,0.00
2013-1-27,29.1,25.7,19.9,24.0,20.6,17.0,92,81,64,30.64,30.45,4,0,0,0.00
2013-1-28,49.9,40.2,27.5,42.0,34.6,25.0,95,81,67,30.52,30.25,11,3,0,0.00
2013-1-29,62.1,54.4,49.9,53.0,45.4,38.0,98,73,53,30.25,30.03,16,3,0,0.00
2013-1-30,56.6,53.4,40.3,57.0,53.1,39.0,100,99,92,30.02,29.43,16,3,0,0.00
2013-1-31,39.9,27.2,23.0,38.0,20.4,14.0,93,76,61,30.08,29.45,26,10,0,0.00
2013-2-1,32.7,17.6,9.5,26.0,7.3,-3.0,92,65,46,30.52,29.95,19,8,0,0.00
2013-2-2,27.5,21.2,13.5,25.0,10.8,-6.0,93,66,35,30.48,30.11,9,2,0,0.00
2013-2-3,30.9,26.5,22.4,25.0,21.2,17.0,92,81,71,30.10,29.93,33,9,0,0.00
2013-2-4,37.3,28.1,18.6,22.0,17.5,12.0,81,65,52,30.22,30.04,14,2,0,0.00
2013-2-5,41.3,37.8,35.8,33.0,27.7,19.0,81,68,46,30.04,29.96,15,4,0,0.00
2013-2-6,46.1,38.4,30.9,31.0,22.0,12.0,82,55,26,30.34,30.03,10,2,0,0.00
2013-2-7,39.3,34.6,31.5,36.0,28.8,20.0,97,81,53,30.38,30.11,3,0,0,0.00
2013-2-8,42.8,34.5,26.3,41.0,31.1,21.0,99,88,59,30.11,29.93,26,7,0,0.00
2013-2-9,45.8,33.0,23.8,22.0,12.5,3.0,82,48,18,30.45,30.07,34,8,0,0.00
2013-2-10,43.9,35.5,31.2,32.0,19.0,12.0,96,54,35,30.47,30.21,5,0,0,0.00
2013-2-11,51.1,44.8,33.8,51.0,37.5,19.0,99,79,40,30.20,29.99,20,5,0,0.00
2013-2-12,48.9,39.4,32.5,31.0,19.3,11.0,90,47,22,30.14,29.98,20,6,0,0.00
2013-2-13,37.3,34.4,29.5,37.0,32.9,27.0,98,94,81,30.00,29.68,19,3,0,0.00
2013-2-14,43.9,33.9,24.8,28.0,24.4,20.0,89,70,47,30.14,29.90,20,5,0,0.00
2013-2-15,47.3,37.9,28.1,33.0,29.3,25.0,92,73,50,30.15,30.00,15,4,0,0.00
2013-2-16,27.8,23.4,15.9,25.0,17.0,7.0,88,76,59,30.04,29.92,17,7,0,0.00
2013-2-17,24.7,17.5,9.9,11.0,4.1,0.0,87,57,38,30.35,30.04,20,9,0,0.00
2013-2-18,43.1,31.4,21.0,22.0,14.2,1.0,67,50,36,30.46,30.20,10,2,0,0.00
2013-2-19,39.9,32.4,27.0,37.0,23.5,9.0,98,72,38,30.21,29.93,14,4,0,0.00
2013-2-20,37.0,28.1,22.4,12.0,4.4,-8.0,57,39,19,30.24,30.03,23,9,0,0.00
2013-2-21,49.5,34.4,21.3,24.0,8.5,1.0,69,36,16,30.31,30.18,10,2,0,0.00
2013-2-22,32.5,29.4,27.0,32.0,28.3,25.0,98,95,74,30.31,30.18,3,0,0,0.00
2013-2-23,49.4,43.7,31.6,44.0,40.4,31.0,99,88,65,30.19,29.85,6,1,0,0.00
2013-2-24,45.2,38.6,31.6,38.0,26.8,18.0,88,65,40,30.14,29.86,15,5,0,0.00
2013-2-25,35.9,29.4,26.0,23.0,20.6,17.0,82,70,58,30.26,30.09,10,1,0,0.00
2013-2-26,38.5,32.4,24.7,38.0,30.6,17.0,98,94,65,30.22,29.67,10,2,0,0.00
2013-2-27,46.2,36.2,31.2,35.0,29.5,25.0,98,77,55,29.85,29.69,17,6,0,0.00
2013-2-28,31.6,27.6,25.0,27.0,22.9,20.0,91,83,71,29.96,29.73,16,7,0,0.00
2013-3-1,32.1,27.9,25.6,24.0,22.6,21.0,88,80,72,30.01,29.93,14,6,0,0.00
2013-3-2,29.8,25.0,18.1,23.0,19.7,12.0,87,80,63,30.02,29.93,19,6,0,0.00
2013-3-3,26.0,19.5,15.2,16.0,11.8,9.0,80,72,60,30.11,29.96,21,10,0,0.00
2013-3-4,42.9,28.9,16.7,11.0,8.1,1.0,74,47,22,30.23,30.02,21,7,0,0.00
2013-3-5,42.2,38.1,32.5,39.0,27.8,10.0,97,71,32,30.12,29.64,11,1,0,0.00
2013-3-6,31.3,24.3,20.6,29.0,20.4,16.0,92,85,74,30.22,29.64,29,12,0,0.00
2013-3-7,31.5,25.5,22.4,24.0,21.2,18.0,94,84,70,30.39,30.20,23,12,0,0.00
2013-3-8,39.6,29.6,22.7,23.0,20.2,18.0,85,69,48,30.43,30.33,18,7,0,0.00
2013-3-9,54.5,41.1,28.7,28.0,23.2,20.0,73,51,31,30.43,30.31,4,0,0,0.00
2013-3-10,56.3,46.1,39.2,32.0,29.3,26.0,63,53,34,30.33,30.21,4,1,0,0.00
2013-3-11,47.1,42.7,38.8,46.0,38.8,31.0,97,86,61,30.21,29.93,4,0,0,0.00
2013-3-12,47.7,41.8,34.0,47.0,37.1,25.0,98,84,64,30.06,29.77,15,5,0,0.00
2013-3-13,34.4,29.7,21.3,27.0,19.8,11.0,85,67,52,30.25,30.02,22,7,0,0.00
2013-3-14,38.0,25.6,16.7,15.0,11.6,8.0,78,58,33,30.38,30.21,30,8,0,0.00
2013-3-15,54.7,40.7,27.9,37.0,24.6,12.0,74,54,35,30.29,29.95,15,4,0,0.00
2013-3-16,66.3,56.0,49.6,49.0,43.0,38.0,87,63,44,29.94,29.71,17,6,0,0.00
2013-3-17,53.1,46.4,32.1,47.0,42.8,31.0,97,87,76,30.16,29.87,6,1,0,0.00
2013-3-18,40.6,32.2,29.3,40.0,31.6,29.0,99,97,97,30.20,29.94,4,1,0,0.00
2013-3-19,47.0,40.8,33.1,43.0,24.9,2.0,98,59,25,30.14,29.89,19,8,0,0.00
2013-3-20,43.6,33.6,25.7,25.0,7.4,1.0,87,36,18,30.17,29.87,17,6,0,0.00
2013-3-21,27.6,20.5,15.4,24.0,9.1,5.0,90,62,45,30.10,29.80,19,7,0,0.00
2013-3-22,43.6,26.2,13.3,9.0,5.8,1.0,76,47,18,30.19,30.07,10,4,0,0.00
2013-3-23,45.7,37.3,31.8,36.0,27.7,6.0,83,69,33,30.11,29.98,10,2,0,0.00
2013-3-24,37.0,32.8,27.6,33.0,30.7,27.0,97,92,75,29.99,29.60,3,0,0,0.00
2013-3-25,28.5,26.0,23.6,27.0,22.4,19.0,96,86,76,29.89,29.59,20,1,0,0.00
2013-3-26,32.4,26.5,23.0,23.0,20.8,18.0,87,79,67,30.23,29.89,19,9,0,0.00
2013-3-27,32.7,26.4,23.2,22.0,17.6,15.0,89,70,55,30.37,30.22,15,7,0,0.00
2013-3-28,40.1,31.3,24.5,23.0,18.4,16.0,72,60,43,30.41,30.30,13,6,0,0.00
2013-3-29,47.4,37.0,28.7,27.0,18.8,12.0,66,50,26,30.42,30.28,10,4,0,0.00
2013-3-30,53.9,43.8,34.7,35.0,26.6,23.0,72,53,32,30.32,30.11,4,0,0,0.00
2013-3-31,51.7,44.9,41.2,48.0,42.3,34.0,99,91,70,30.11,29.89,9,2,0,0.00
2013-4-1,50.4,44.6,35.6,44.0,35.4,28.0,95,71,53,30.04,29.87,17,6,0,0.00
2013-4-2,47.0,36.2,27.9,29.0,18.0,9.0,79,51,26,30.24,30.04,10,4,0,0.00
2013-4-3,51.4,37.3,26.6,15.0,11.5,8.0,55,36,18,30.41,30.21,9,3,0,0.00
2013-4-4,36.8,31.6,28.8,32.0,18.9,6.0,97,65,31,30.40,30.09,3,0,0,0.00
2013-4-5,50.8,38.5,32.1,38.0,33.0,30.0,98,83,51,30.15,30.02,14,5,0,0.00
2013-4-6,57.2,46.9,37.6,33.0,30.1,26.0,70,53,38,30.28,30.12,12,2,0,0.00
2013-4-7,62.0,50.6,39.2,43.0,37.9,31.0,80,63,46,30.25,30.13,7,1,0,0.00
2013-4-8,69.8,57.6,48.8,48.0,43.4,39.0,71,60,44,30.19,30.06,5,1,0,0.00
2013-4-9,75.8,64.2,55.0,52.0,48.3,46.0,73,58,36,30.22,30.08,7,1,0,0.00
2013-4-10,79.0,67.4,59.3,54.0,51.7,50.0,75,59,37,30.12,29.95,11,2,0,0.00
2013-4-11,71.8,62.3,53.9,58.0,53.2,51.0,97,74,49,29.96,29.72,6,1,0,0.00
2013-4-12,64.3,56.4,46.1,60.0,49.0,32.0,99,79,36,29.87,29.62,15,6,0,0.00
2013-4-13,62.1,51.6,42.2,36.0,31.0,24.0,71,48,25,30.09,29.82,18,7,0,0.00
2013-4-14,67.6,56.7,47.7,46.0,34.7,27.0,79,45,28,30.13,30.00,6,1,0,0.00
2013-4-15,51.7,49.2,46.5,52.0,48.4,46.0,99,97,82,30.27,29.99,4,0,0,0.00
2013-4-16,70.4,57.9,51.0,59.0,54.2,51.0,99,88,63,30.33,30.21,3,0,0,0.00
2013-4-17,67.9,59.0,55.1,56.0,54.2,52.0,96,84,59,30.29,30.16,16,2,0,0.01
2013-4-18,67.8,60.1,56.3,58.0,55.2,53.0,97,84,61,30.20,29.98,5,1,0,0.00
2013-4-19,59.6,54.5,39.3,59.0,53.7,34.0,99,97,80,29.97,29.73,14,3,0,0.00
2013-4-20,51.9,40.5,30.4,32.0,25.8,21.0,79,58,36,30.38,29.89,20,8,0,0.00
2013-4-21,52.5,43.0,34.7,33.0,26.6,20.0,72,53,44,30.54,30.36,4,1,0,0.00
2013-4-22,54.7,42.4,30.4,36.0,28.9,22.0,93,62,34,30.52,30.34,5,1,0,0.00
2013-4-23,62.7,48.8,35.9,45.0,38.9,28.0,90,71,50,30.36,30.15,6,1,0,0.00
2013-4-24,65.2,54.7,45.8,53.0,48.2,44.0,94,80,58,30.15,30.01,11,2,0,0.00
2013-4-25,61.3,46.0,31.2,45.0,29.3,17.0,95,60,18,30.38,30.09,11,5,0,0.00
2013-4-26,60.4,49.1,36.6,35.0,30.5,26.0,67,50,33,30.48,30.34,11,2,0,0.00
2013-4-27,55.1,50.2,45.7,47.0,40.6,32.0,98,72,49,30.40,30.28,4,0,0,0.00
2013-4-28,48.6,46.1,43.8,48.0,45.9,44.0,99,99,98,30.29,30.10,3,0,0,0.00
2013-4-29,60.4,52.6,47.6,55.0,51.0,47.0,99,94,75,30.12,30.01,5,0,0,0.00
2013-4-30,66.1,56.1,51.4,57.0,52.5,50.0,99,88,66,30.24,30.03,3,0,0,0.00
2013-5-1,59.6,52.3,48.3,51.0,49.0,47.0,97,88,68,30.38,30.19,4,1,0,0.00
2013-5-2,53.8,49.6,46.0,53.0,48.9,46.0,99,97,93,30.38,30.30,4,0,0,0.00
2013-5-3,58.3,50.1,43.1,48.0,44.2,41.0,98,81,57,30.31,30.19,9,1,0,0.00
2013-5-4,53.3,43.8,38.8,44.0,39.4,36.0,96,85,53,30.21,30.11,5,2,0,0.00
2013-5-5,47.1,43.2,39.1,47.0,41.8,34.0,99,94,80,30.15,29.99,9,2,0,0.00
2013-5-6,53.3,48.6,45.8,53.0,48.3,45.0,99,99,97,29.99,29.88,11,1,0,0.00
2013-5-7,55.7,47.7,45.1,53.0,47.0,44.0,99,97,83,29.98,29.90,11,1,0,0.00
2013-5-8,56.5,49.6,44.9,53.0,48.1,44.0,98,94,85,30.08,29.96,13,2,0,0.00
2013-5-9,69.9,58.3,48.6,54.0,49.0,47.0,97,74,44,30.13,30.03,11,4,0,0.00
2013-5-10,72.1,63.4,58.6,56.0,52.1,46.0,91,68,52,30.12,29.94,7,1,0,0.00
2013-5-11,66.1,60.0,55.1,57.0,53.2,51.0,90,79,60,29.95,29.83,8,2,0,0.00
2013-5-12,54.7,48.3,41.1,50.0,35.5,27.0,93,64,37,30.12,29.86,14,6,0,0.00
2013-5-13,56.2,44.9,36.8,29.0,25.6,21.0,68,49,28,30.23,30.08,15,5,0,0.00
2013-5-14,65.0,52.1,40.1,45.0,34.6,26.0,70,52,41,30.29,30.08,4,1,0,0.00
2013-5-15,81.2,68.1,55.7,54.0,50.1,44.0,76,55,31,30.08,29.97,21,7,0,0.00
2013-5-16,74.2,65.6,60.2,53.0,48.4,40.0,67,55,33,30.06,29.90,16,6,0,0.00
2013-5-17,72.5,63.4,57.8,59.0,55.6,50.0,96,77,59,30.13,30.01,9,1,0,0.00
2013-5-18,61.2,58.7,56.7,60.0,57.9,56.0,99,97,95,30.19,30.09,2,0,0,0.00
2013-5-19,63.2,59.8,57.8,63.0,59.6,58.0,100,99,99,30.16,30.07,2,0,0,0.00
2013-5-20,68.9,62.2,59.2,63.0,60.0,58.0,100,93,69,30.16,30.05,6,1,0,0.00
2013-5-21,78.1,67.6,59.5,65.0,61.9,56.0,98,83,58,30.09,29.96,14,1,0,0.00
2013-5-22,71.5,63.0,55.4,65.0,59.1,51.0,97,87,61,30.03,29.92,8,1,0,0.00
2013-5-23,71.8,60.7,54.7,63.0,56.2,52.0,97,86,52,29.98,29.86,12,3,0,0.00
2013-5-24,56.2,50.6,43.3,52.0,41.4,31.0,94,73,41,30.26,29.87,23,8,0,0.00
2013-5-25,64.0,50.7,40.3,37.0,31.6,24.0,77,51,28,30.36,30.25,12,4,0,0.00
2013-5-26,65.5,54.4,46.5,48.0,41.3,36.0,73,62,45,30.33,30.22,11,2,0,0.00
2013-5-27,70.9,60.2,51.7,57.0,49.6,39.0,83,69,57,30.31,30.19,5,0,0,0.00
2013-5-28,72.0,64.2,56.7,62.0,57.9,54.0,93,80,67,30.24,30.14,3,0,0,0.00
2013-5-29,75.3,66.0,58.3,63.0,58.7,54.0,96,78,60,30.26,30.16,4,0,0,0.00
2013-5-30,73.9,65.7,58.9,62.0,58.7,55.0,93,79,61,30.29,30.20,4,0,0,0.00
2013-5-31,73.2,65.4,59.0,62.0,59.0,56.0,92,80,65,30.24,30.15,3,0,0,0.00
2013-6-1,74.9,66.7,61.8,64.0,60.7,58.0,97,82,61,30.15,30.04,5,0,0,0.00
2013-6-2,69.1,62.8,59.9,64.0,61.1,58.0,98,94,84,30.06,29.93,4,0,0,0.00
2013-6-3,70.6,63.7,60.1,61.0,58.9,55.0,99,85,67,30.03,29.90,7,2,0,0.00
2013-6-4,66.3,60.1,56.7,60.0,56.1,54.0,92,86,79,30.17,30.01,0,0,0,0.00
2013-6-5,62.4,59.5,57.2,61.0,58.6,55.0,99,97,93,30.17,30.06,0,0,0,0.00
2013-6-6,65.6,61.9,57.2,65.0,61.7,57.0,99,99,99,30.07,29.83,2,0,0,0.00
2013-6-7,68.3,62.4,58.6,64.0,61.0,55.0,100,95,80,29.90,29.69,14,2,0,0.00
2013-6-8,69.8,62.3,54.8,65.0,59.1,54.0,98,89,75,30.14,29.87,3,0,0,0.00
2013-6-9,72.5,65.0,61.0,66.0,62.5,58.0,99,92,73,30.19,30.08,3,0,0,0.00
2013-6-10,67.4,63.2,60.9,67.0,62.8,59.0,100,98,85,30.08,29.90,5,0,0,0.00
2013-6-11,70.8,63.6,57.6,62.0,58.5,56.0,98,84,69,30.05,29.93,11,4,0,0.00
2013-6-12,81.6,72.1,63.2,69.0,63.8,58.0,86,76,57,30.03,29.91,12,4,0,0.00
2013-6-13,77.2,68.8,58.3,65.0,61.6,54.0,90,78,61,29.91,29.68,18,7,0,0.00
2013-6-14,67.8,60.0,54.8,53.0,51.1,49.0,90,73,56,30.10,29.78,13,4,0,0.00
2013-6-15,72.7,63.5,56.3,60.0,53.7,49.0,87,72,50,30.20,30.09,7,1,0,0.00
2013-6-16,72.7,66.9,61.6,65.0,60.3,56.0,88,80,68,30.14,30.05,8,1,0,0.00
2013-6-17,72.5,67.2,61.6,67.0,62.7,56.0,97,86,73,30.06,29.98,6,2,0,0.00
2013-6-18,66.3,63.3,59.5,66.0,62.5,58.0,99,97,92,29.97,29.83,12,2,0,0.00
2013-6-19,69.9,62.5,56.6,63.0,58.8,56.0,98,88,68,30.17,29.97,3,0,0,0.00
2013-6-20,68.3,63.2,59.8,63.0,60.8,58.0,99,92,81,30.30,30.15,1,0,0,0.00
2013-6-21,73.2,64.3,58.4,63.0,60.2,57.0,97,87,68,30.32,30.24,2,0,0,0.00
2013-6-22,73.0,64.2,56.3,63.0,58.2,53.0,93,81,63,30.29,30.18,2,0,0,0.00
2013-6-23,74.6,67.5,62.0,66.0,63.0,61.0,98,86,68,30.25,30.16,3,0,0,0.00
2013-6-24,74.7,68.3,62.9,67.0,63.9,61.0,96,86,72,30.24,30.13,3,0,0,0.00
2013-6-25,78.1,69.7,65.2,68.0,63.7,60.0,91,81,57,30.16,30.05,7,2,0,0.00
2013-6-26,76.8,69.1,64.5,68.0,64.5,61.0,96,85,66,30.07,29.94,10,2,0,0.00
2013-6-27,73.7,67.6,62.3,67.0,63.6,58.0,97,87,74,29.95,29.78,12,3,0,0.00
2013-6-28,75.3,69.0,64.2,67.0,62.4,59.0,93,80,62,29.81,29.64,16,5,0,0.00
2013-6-29,73.5,67.3,62.1,65.0,61.1,57.0,92,80,68,29.75,29.62,10,1,0,0.00
2013-6-30,72.8,65.8,59.2,66.0,62.3,58.0,98,89,74,29.89,29.71,2,0,0,0.00
2013-7-1,68.1,63.3,58.9,66.0,62.6,59.0,99,97,90,30.00,29.84,3,0,0,0.00
2013-7-2,65.8,63.6,61.8,66.0,63.4,62.0,100,99,99,30.18,29.98,2,0,0,0.00
2013-7-3,67.3,64.3,62.6,67.0,64.5,63.0,100,100,100,30.24,30.15,2,0,0,0.00
2013-7-4,68.8,64.7,62.7,69.0,64.8,63.0,100,100,100,30.30,30.20,2,0,0,0.00
2013-7-5,70.3,65.5,62.6,70.0,65.4,63.0,100,99,94,30.29,30.21,3,0,0,0.00
2013-7-6,70.9,65.7,64.0,69.0,65.3,64.0,100,99,89,30.27,30.16,4,0,0,0.00
2013-7-7,70.3,65.7,62.6,70.0,65.4,62.0,100,99,90,30.21,30.12,4,0,0,0.00
2013-7-8,74.4,66.8,61.2,68.0,63.1,60.0,97,88,69,30.23,30.16,9,1,0,0.00
2013-7-9,77.0,70.4,66.0,68.0,65.3,60.0,96,84,68,30.20,30.09,4,0,0,0.00
2013-7-10,74.4,68.7,64.8,71.0,66.2,63.0,99,92,82,30.14,29.98,2,0,0,0.00
2013-7-11,69.9,66.6,62.6,69.0,65.7,62.0,99,96,88,30.00,29.92,5,1,0,0.00
2013-7-12,71.1,63.8,61.0,66.0,62.3,59.0,99,95,76,30.08,29.93,4,0,0,0.00
2013-7-13,67.6,63.3,59.5,65.0,62.2,59.0,99,96,88,30.19,30.05,0,0,0,0.00
2013-7-14,71.5,66.6,64.0,68.0,65.8,64.0,100,97,85,30.36,30.16,4,0,0,0.00
2013-7-15,75.1,68.6,64.3,67.0,65.5,63.0,100,90,72,30.39,30.32,1,0,0,0.00
2013-7-16,81.2,71.3,64.8,69.0,64.7,60.0,95,80,60,30.37,30.28,5,1,0,0.00
2013-7-17,79.0,70.8,64.5,70.0,66.9,64.0,98,88,70,30.31,30.19,5,1,0,0.00
2013-7-18,78.1,71.5,66.1,72.0,67.8,65.0,98,88,75,30.24,30.10,2,0,0,0.00
2013-7-19,75.8,70.6,65.6,72.0,67.8,64.0,97,91,78,30.15,30.03,5,0,0,0.00
2013-7-20,76.3,69.5,64.8,72.0,66.7,63.0,98,91,76,30.08,29.96,10,1,0,0.00
2013-7-21,77.4,69.2,65.3,70.0,65.9,63.0,99,89,70,30.04,29.94,5,1,0,0.00
2013-7-22,71.8,67.4,63.9,69.0,65.7,62.0,100,94,83,30.00,29.86,6,1,0,0.00
2013-7-23,74.9,67.9,63.1,66.0,63.6,62.0,98,87,69,29.89,29.80,14,4,0,0.00
2013-7-24,75.6,68.8,64.5,67.0,64.4,62.0,96,86,66,29.91,29.79,9,2,0,0.00
2013-7-25,69.4,64.6,60.5,64.0,61.9,58.0,98,91,81,30.09,29.89,2,0,0,0.00
2013-7-26,71.3,64.7,59.3,67.0,61.9,56.0,98,90,82,30.15,30.06,3,0,0,0.00
2013-7-27,65.5,62.9,60.4,66.0,62.8,60.0,100,99,98,30.08,29.96,4,0,0,0.00
2013-7-28,72.5,64.7,59.0,66.0,61.0,56.0,100,89,61,30.08,29.96,6,1,0,0.00
2013-7-29,72.7,62.2,53.9,62.0,54.9,50.0,97,78,54,30.27,30.06,10,1,0,0.00
2013-7-30,67.6,62.5,57.8,63.0,57.5,52.0,95,84,76,30.29,30.21,4,0,0,0.00
2013-7-31,63.7,62.2,60.2,63.0,60.3,55.0,100,93,82,30.21,30.03,4,0,0,0.00
2013-8-1,74.6,67.4,62.6,66.0,63.0,60.0,100,86,66,30.03,29.92,7,2,0,0.00
2013-8-2,73.5,65.6,59.2,65.0,60.8,56.0,98,85,63,30.09,29.97,5,1,0,0.00
2013-8-3,74.7,68.4,64.5,66.0,63.2,61.0,97,84,65,30.07,29.99,7,1,0,0.00
2013-8-4,71.6,65.5,61.3,64.0,59.6,53.0,98,83,53,30.11,29.96,11,3,0,0.00
2013-8-5,70.1,63.5,57.3,66.0,59.6,55.0,97,87,75,30.13,30.03,2,0,0,0.00
2013-8-6,70.1,65.6,62.7,66.0,64.1,63.0,100,95,85,30.07,29.98,2,0,0,0.00
2013-8-7,66.1,64.7,63.2,66.0,64.8,63.0,100,100,98,30.12,30.05,1,0,0,0.00
2013-8-8,69.8,66.8,64.8,70.0,66.8,65.0,100,100,100,30.11,30.04,2,0,0,0.00
2013-8-9,76.7,69.7,65.3,71.0,67.4,65.0,100,92,78,30.10,30.03,5,0,0,0.00
2013-8-10,75.3,69.3,64.5,69.0,65.8,61.0,97,89,76,30.15,30.06,11,3,0,0.00
2013-8-11,77.2,70.5,66.3,69.0,65.1,61.0,93,83,74,30.18,30.07,9,2,0,0.00
2013-8-12,75.6,68.4,62.7,70.0,65.7,62.0,98,91,76,30.11,30.00,10,2,0,0.00
2013-8-13,71.1,66.1,62.9,68.0,64.1,62.0,98,93,81,30.01,29.85,11,3,0,0.00
2013-8-14,65.8,59.3,53.6,60.0,54.1,49.0,97,83,61,30.17,29.91,12,3,0,0.00
2013-8-15,61.3,55.3,50.1,56.0,51.4,46.0,96,87,78,30.23,30.13,2,0,0,0.00
2013-8-16,64.3,56.9,51.4,58.0,53.6,50.0,97,89,77,30.24,30.16,2,0,0,0.00
2013-8-17,59.8,56.5,51.9,60.0,55.3,51.0,100,96,85,30.26,30.20,0,0,0,0.00
2013-8-18,65.5,61.4,59.0,65.0,61.2,59.0,100,99,96,30.26,30.18,1,0,0,0.00
2013-8-19,64.8,62.7,60.5,65.0,62.8,61.0,100,100,99,30.23,30.14,2,0,0,0.00
2013-8-20,69.9,65.2,60.9,67.0,64.0,61.0,100,96,86,30.23,30.15,1,0,0,0.00
2013-8-21,71.1,66.3,62.6,68.0,64.9,62.0,100,95,86,30.28,30.15,1,0,0,0.00
2013-8-22,75.4,68.2,63.1,66.0,63.2,61.0,95,84,66,30.22,30.06,8,2,0,0.00
2013-8-23,71.8,66.1,61.5,65.0,63.1,59.0,97,90,74,30.15,30.02,8,2,0,0.00
2013-8-24,68.8,61.4,55.9,60.0,55.7,51.0,99,83,62,30.38,30.16,3,0,0,0.00
2013-8-25,66.3,60.1,55.9,58.0,55.8,52.0,97,86,72,30.46,30.34,0,0,0,0.00
2013-8-26,72.5,63.4,55.9,64.0,58.0,54.0,96,83,65,30.39,30.17,7,1,0,0.00
2013-8-27,74.2,67.2,62.4,67.0,63.1,60.0,95,87,72,30.17,30.06,9,4,0,0.00
2013-8-28,75.8,70.1,66.0,68.0,65.3,64.0,93,85,69,30.06,29.94,12,4,0,0.00
2013-8-29,79.4,71.0,66.1,71.0,66.6,65.0,97,86,68,30.05,29.88,18,4,0,0.00
2013-8-30,72.5,66.5,62.6,68.0,65.1,62.0,99,95,85,30.10,29.99,1,0,0,0.00
2013-8-31,74.9,68.5,65.0,70.0,65.5,62.0,99,90,72,30.00,29.91,6,1,0,0.00
2013-9-1,74.4,67.5,63.1,68.0,64.3,60.0,98,90,76,29.96,29.85,5,1,0,0.00
2013-9-2,74.2,68.3,64.0,67.0,64.1,63.0,97,87,70,29.96,29.86,10,2,0,0.00
2013-9-3,73.3,66.7,59.8,64.0,61.6,55.0,94,84,65,30.05,29.84,10,3,0,0.00
2013-9-4,71.8,63.6,56.9,64.0,57.8,53.0,93,82,68,30.17,30.02,3,1,0,0.00
2013-9-5,74.0,65.2,59.2,59.0,52.6,41.0,85,66,36,30.20,30.11,6,2,0,0.00
2013-9-6,67.1,61.7,58.4,61.0,58.1,56.0,94,88,79,30.24,30.15,5,0,0,0.00
2013-9-7,70.1,62.2,54.8,65.0,58.4,53.0,94,87,76,30.18,30.02,7,1,0,0.00
2013-9-8,72.7,66.4,61.2,64.0,61.3,60.0,95,84,65,30.05,29.99,7,2,0,0.00
2013-9-9,71.8,67.0,63.1,67.0,63.8,61.0,95,89,82,30.20,30.05,0,0,0,0.00
2013-9-10,74.2,68.0,62.6,68.0,64.4,61.0,98,89,74,30.28,30.19,2,0,0,0.00
2013-9-11,74.9,69.1,65.6,68.0,64.7,60.0,93,86,74,30.25,30.10,4,1,0,0.00
2013-9-12,75.6,68.5,61.5,69.0,63.9,59.0,92,85,68,30.11,29.87,13,3,0,0.00
2013-9-13,63.5,59.3,49.5,60.0,53.0,46.0,96,80,60,30.00,29.80,14,5,0,0.00
2013-9-14,63.1,52.5,44.6,54.0,47.5,43.0,93,83,63,30.20,29.99,9,1,0,0.00
2013-9-15,65.2,56.9,50.2,58.0,53.7,49.0,96,89,75,30.28,30.18,3,0,0,0.00
2013-9-16,67.3,61.1,53.6,60.0,56.4,53.0,96,85,74,30.25,30.13,10,2,0,0.00
2013-9-17,56.2,53.2,49.2,53.0,50.4,48.0,96,90,84,30.39,30.25,1,0,0,0.00
2013-9-18,58.3,52.5,47.9,55.0,50.8,46.0,97,93,85,30.35,30.24,3,0,0,0.00
2013-9-19,63.1,59.2,54.4,62.0,58.5,54.0,100,97,91,30.24,30.13,5,1,0,0.00
2013-9-20,71.6,65.0,60.7,66.0,61.9,59.0,99,90,78,30.13,29.96,7,1,0,0.00
2013-9-21,62.4,59.6,53.3,62.0,59.7,53.0,100,100,99,29.96,29.73,9,2,0,0.00
2013-9-22,62.4,53.9,47.4,55.0,50.8,47.0,100,90,73,30.01,29.80,12,3,0,0.00
2013-9-23,61.0,53.1,47.9,55.0,50.6,46.0,97,91,78,30.13,30.00,3,0,0,0.00
2013-9-24,65.8,57.8,52.6,60.0,55.1,52.0,99,91,72,30.13,29.99,3,0,0,0.00
2013-9-25,56.6,55.0,51.3,57.0,54.9,51.0,100,99,97,29.99,29.92,1,0,0,0.00
2013-9-26,64.0,56.0,51.0,56.0,52.6,50.0,98,88,65,30.11,29.96,2,0,0,0.00
2013-9-27,63.9,55.8,50.8,56.0,51.2,48.0,91,85,66,30.25,30.11,1,0,0,0.00
2013-9-28,58.6,52.8,47.7,54.0,50.9,46.0,98,93,83,30.31,30.22,1,0,0,0.00
2013-9-29,59.8,53.1,46.7,56.0,51.3,45.0,99,93,84,30.25,30.10,3,0,0,0.00
2013-9-30,60.4,55.3,50.2,56.0,52.8,49.0,96,91,84,30.15,30.07,3,0,0,0.00
2013-10-1,67.1,59.7,55.3,58.0,54.0,52.0,92,82,62,30.19,30.10,6,1,0,0.00
2013-10-2,68.8,61.8,56.3,58.0,55.6,53.0,91,80,66,30.21,30.12,6,2,0,0.00
2013-10-3,70.6,63.7,60.4,61.0,57.7,55.0,90,81,69,30.18,30.10,1,0,0,0.00
2013-10-4,70.9,64.5,59.8,63.0,59.1,56.0,93,83,68,30.20,30.11,5,1,0,0.00
2013-10-5,75.1,66.0,62.3,63.0,59.6,57.0,92,80,62,30.19,30.08,2,0,0,0.00
2013-10-6,67.9,63.1,59.5,63.0,60.3,59.0,97,90,80,30.08,29.91,1,0,0,0.00
2013-10-7,61.8,56.0,47.0,61.0,53.8,43.0,100,92,78,30.12,29.83,11,3,0,0.00
2013-10-8,57.5,48.1,40.8,49.0,43.3,39.0,95,84,63,30.34,30.10,5,0,0,0.00
2013-10-9,59.3,48.6,41.8,46.0,41.5,39.0,93,78,53,30.35,30.22,3,0,0,0.00
2013-10-10,57.3,51.9,43.5,57.0,49.0,38.0,99,89,77,30.22,30.06,11,3,0,0.00
2013-10-11,64.5,57.2,52.0,54.0,50.8,48.0,94,80,65,30.05,29.97,12,6,0,0.00
2013-10-12,61.2,57.0,53.8,57.0,55.2,53.0,100,93,84,30.14,29.99,5,1,0,0.00
2013-10-13,62.3,57.6,55.4,59.0,56.9,55.0,100,97,83,30.27,30.13,4,0,0,0.00
2013-10-14,59.3,55.5,52.6,58.0,55.2,52.0,100,99,92,30.31,30.22,3,0,0,0.00
2013-10-15,61.2,52.8,46.5,54.0,49.3,46.0,99,88,66,30.27,30.13,2,0,0,0.00
2013-10-16,62.6,54.4,48.0,56.0,51.4,46.0,97,90,74,30.13,30.00,3,0,0,0.00
2013-10-17,58.0,56.5,52.5,58.0,55.5,51.0,100,96,88,29.99,29.86,7,1,0,0.00
2013-10-18,58.9,49.6,40.3,50.0,46.1,39.0,97,88,62,30.08,29.96,10,1,0,0.00
2013-10-19,55.6,51.2,45.5,53.0,48.1,39.0,100,90,61,30.01,29.86,6,1,0,0.00
2013-10-20,55.0,43.4,34.3,41.0,35.6,31.0,94,76,51,30.21,29.98,7,1,0,0.00
2013-10-21,57.2,47.5,40.1,48.0,42.3,35.0,94,82,68,30.20,30.02,2,0,0,0.00
2013-10-22,58.4,52.3,48.5,49.0,44.7,42.0,95,76,58,30.04,29.84,12,3,0,0.00
2013-10-23,48.5,41.0,30.6,46.0,34.7,25.0,93,79,57,30.09,29.75,17,7,0,0.00
2013-10-24,40.8,34.2,29.3,32.0,28.4,24.0,97,80,66,30.27,30.09,14,3,0,0.00
2013-10-25,33.5,29.6,25.6,31.0,26.1,22.0,98,87,71,30.49,30.25,9,4,0,0.00
2013-10-26,46.0,36.3,25.3,34.0,26.0,20.0,85,67,53,30.46,30.11,12,1,0,0.00
2013-10-27,56.7,46.8,39.1,43.0,36.5,33.0,83,69,46,30.19,30.09,12,3,0,0.00
2013-10-28,54.4,50.2,46.8,50.0,47.9,43.0,98,92,83,30.32,30.14,11,1,0,0.00
2013-10-29,61.8,53.3,48.5,52.0,48.5,47.0,97,84,64,30.40,30.28,4,0,0,0.00
2013-10-30,63.2,56.3,51.0,54.0,51.6,48.0,96,84,70,30.31,30.20,10,1,0,0.00
2013-10-31,57.0,55.2,53.6,57.0,53.3,51.0,100,93,86,30.21,29.85,3,1,0,0.00
2013-11-1,65.0,57.6,51.4,57.0,52.9,40.0,100,85,59,29.84,29.68,12,3,0,0.00
2013-11-2,52.2,46.6,40.3,44.0,36.4,30.0,80,68,53,30.01,29.73,17,8,0,0.00
2013-11-3,46.0,39.0,34.9,34.0,30.8,28.0,86,73,58,30.45,30.00,14,4,0,0.00
2013-11-4,45.7,37.6,31.5,29.0,25.9,21.0,76,64,44,30.63,30.45,3,0,0,0.00
2013-11-5,49.9,40.0,29.7,43.0,34.5,25.0,98,81,52,30.66,30.47,1,0,0,0.00
2013-11-6,55.6,48.5,44.3,49.0,47.0,44.0,100,94,77,30.46,30.17,4,0,0,0.00
2013-11-7,53.3,45.1,31.6,51.0,41.2,26.0,98,86,70,30.18,30.02,23,6,0,0.00
2013-11-8,40.3,33.6,29.0,26.0,21.1,18.0,81,61,43,30.43,30.17,16,5,0,0.01
2013-11-9,46.1,38.8,30.9,27.0,21.1,11.0,63,51,25,30.43,30.22,14,2,0,0.00
2013-11-10,53.3,44.7,34.7,35.0,26.3,15.0,73,50,30,30.30,30.16,24,9,0,0.00
2013-11-11,52.3,43.3,32.2,20.0,14.2,-10.0,60,33,11,30.41,30.15,9,2,0,0.00
2013-11-12,48.6,34.3,18.3,35.0,20.4,9.0,84,60,20,30.53,30.07,25,11,0,0.00
2013-11-13,34.3,24.6,16.2,14.0,11.0,1.0,79,59,29,30.66,30.52,13,6,0,0.00
2013-11-14,50.5,40.2,28.7,18.0,8.8,-6.0,46,29,15,30.55,30.35,11,2,0,0.00
2013-11-15,51.3,43.8,37.3,45.0,24.0,-2.0,99,55,15,30.39,30.24,3,1,0,0.00
2013-11-16,49.8,47.2,45.5,50.0,47.2,45.0,100,100,99,30.32,30.23,4,0,0,0.00
2013-11-17,54.1,50.5,48.2,54.0,50.6,48.0,100,100,100,30.24,29.90,3,0,0,0.00
2013-11-18,55.3,48.5,36.3,55.0,39.1,23.0,100,72,45,30.07,29.86,17,8,0,0.00
2013-11-19,42.8,34.3,28.5,25.0,21.5,18.0,74,61,38,30.39,30.04,18,5,0,0.00
2013-11-20,40.6,31.9,25.3,26.0,23.6,21.0,83,72,54,30.56,30.35,4,1,0,0.00
2013-11-21,48.3,40.8,30.7,46.0,39.1,26.0,99,94,78,30.59,30.45,1,0,0,0.00
2013-11-22,54.4,50.6,43.9,54.0,50.5,44.0,100,100,97,30.45,30.14,9,1,0,0.00
2013-11-23,50.2,38.6,23.5,50.0,32.6,14.0,100,80,51,30.27,30.13,15,8,0,0.00
2013-11-24,22.7,17.8,13.5,13.0,2.4,-6.0,70,53,28,30.66,30.28,22,7,0,0.00
2013-11-25,27.6,22.2,15.6,20.0,3.2,-16.0,84,45,20,30.64,30.44,3,0,0,0.00
2013-11-26,41.9,36.2,24.4,42.0,35.9,21.0,100,99,86,30.43,29.68,13,1,0,0.00
2013-11-27,39.2,23.9,14.9,39.0,21.1,9.0,100,89,73,30.27,29.66,26,11,0,0.00
2013-11-28,34.6,23.6,12.9,18.0,12.1,0.0,84,63,35,30.58,30.27,15,4,0,0.00
2013-11-29,44.1,32.5,26.4,25.0,15.6,0.0,72,52,26,30.71,30.50,13,2,0,0.00
2013-11-30,35.6,26.6,20.3,21.0,18.9,16.0,83,73,53,30.74,30.45,3,0,0,0.00
2013-12-1,48.3,39.5,26.6,30.0,24.0,10.0,75,55,29,30.45,30.08,9,2,0,0.00
2013-12-2,45.1,40.2,36.6,36.0,33.4,28.0,83,77,68,30.07,29.88,2,0,0,0.00
2013-12-3,50.5,43.9,37.5,44.0,40.5,32.0,99,88,76,30.00,29.91,3,0,0,0.00
2013-12-4,51.0,47.3,44.6,51.0,47.4,44.0,100,100,99,30.11,29.97,5,0,0,0.00
2013-12-5,57.2,54.2,51.1,57.0,54.3,51.0,100,100,100,30.13,30.01,3,0,0,0.00
2013-12-6,59.6,58.2,51.0,60.0,58.3,51.0,100,100,100,30.04,29.93,13,2,0,0.00
2013-12-7,53.1,37.9,29.0,52.0,36.6,28.0,100,95,83,30.52,30.00,13,4,0,0.00
2013-12-8,31.0,28.4,26.6,31.0,28.0,26.0,100,98,97,30.50,30.34,2,0,0,0.00
2013-12-9,51.1,42.8,31.3,51.0,41.2,29.0,100,95,61,30.32,30.05,13,3,0,0.00
2013-12-10,43.2,13.6,26.7,40.0,-50.0,-99.9,94,31,72,30.29,29.93,17,-612,0,0.00
2013-12-11,38.9,10.2,33.5,19.0,-69.0,-99.9,46,10,28,30.43,30.12,9,-722,0,0.00
2013-12-12,28.7,6.1,24.7,11.0,-75.7,-99.9,57,10,38,30.47,30.12,11,-775,0,0.00
2013-12-13,39.1,10.2,31.2,19.0,-66.7,-99.9,55,13,42,30.41,30.12,3,-715,0,0.00
2013-12-14,-200.0,0.0,200.0,-99.9,-99.9,-99.9,0,0,100,30.29,29.65,0,-999,0,0.00
2013-12-15,30.1,6.6,26.7,26.0,-71.3,-99.9,86,19,82,30.12,29.60,19,-768,0,0.00
2013-12-16,42.8,13.8,38.8,27.0,-58.2,-99.9,63,18,48,30.18,29.92,9,-665,0,0.00
2013-12-17,46.4,20.8,32.5,35.0,-35.5,-99.9,95,32,52,30.16,29.94,12,-503,0,0.00
2013-12-18,34.7,13.8,22.7,15.0,-49.4,-99.9,64,21,35,30.41,29.96,12,-545,0,0.00
2013-12-19,54.7,25.1,42.6,26.0,-37.0,-99.9,47,19,27,30.39,30.15,3,-488,0,0.00
2013-12-20,51.3,18.6,45.2,36.0,-48.0,-99.9,69,23,44,30.24,30.07,3,-609,0,0.00
2013-12-21,53.6,12.9,48.9,54.0,-62.1,-99.9,100,25,96,30.16,29.98,4,-749,0,0.00
2013-12-22,-200.0,0.0,200.0,-99.9,-99.9,-99.9,0,0,100,30.05,29.92,0,-999,0,0.00
2013-12-23,-200.0,0.0,200.0,-99.9,-99.9,-99.9,0,0,100,30.07,29.95,0,-999,0,0.00
2013-12-24,26.4,8.6,20.0,22.0,-58.3,-99.9,87,27,66,30.49,30.02,17,-643,0,0.00
2013-12-25,27.6,5.8,23.3,7.0,-76.9,-99.9,48,9,34,30.52,30.14,4,-778,0,0.00
2013-12-26,37.3,10.4,29.8,21.0,-63.4,-99.9,67,17,47,30.44,30.09,14,-693,0,0.00
2013-12-27,42.1,17.8,31.0,19.0,-44.9,-99.9,48,20,37,30.53,30.25,3,-526,0,0.00
2013-12-28,47.7,18.4,41.8,23.0,-52.3,-99.9,47,13,21,30.44,30.11,3,-589,0,0.00
2013-12-29,43.9,12.2,38.2,42.0,-58.2,-99.9,93,27,86,30.13,29.67,22,-694,0,0.00
2013-12-30,-200.0,0.0,200.0,-99.9,-99.9,-99.9,0,0,100,29.99,29.84,0,-999,0,0.00
2013-12-31,32.1,12.9,25.1,19.0,-49.5,-99.9,72,26,52,30.46,29.95,16,-565,0,0.00
2014-1-1,36.5,14.5,30.0,25.0,-44.8,-99.9,82,31,55,30.43,30.12,2,-551,0,0.00
2014-1-2,42.1,34.1,14.8,41.0,27.0,10.0,97,77,45,30.22,29.66,18,5,0,0.00